Time;durP1;ratioP1;P1;durP2;ratioP2;P2;SDS_P1;SDS_P2;PMS_P1;PMS_P2;Temp;Humidity;BMP_temperature;BMP_pressure;BME280_temperature;BME280_humidity;BME280_pressure;Samples;Min_cycle;Max_cycle;Signal;HPM_P1;HPM_P2
2023/12/28 00:00:17;;;;;;;7.50;6.32;;;18.30;73.10;;;;;;4999547;28;20360;-82
2023/12/28 00:02:43;;;;;;;7.95;6.13;;;18.30;73.10;;;;;;5012735;28;20044;-82
2023/12/28 00:05:08;;;;;;;6.15;5.55;;;18.30;73.20;;;;;;5014573;28;20497;-82
2023/12/28 00:07:34;;;;;;;6.47;5.88;;;18.20;73.00;;;;;;5012664;28;20276;-82
2023/12/28 00:10:00;;;;;;;6.60;6.00;;;18.20;73.00;;;;;;5013652;28;20033;-82
2023/12/28 00:12:26;;;;;;;8.40;6.00;;;18.20;73.10;;;;;;5012090;28;20156;-82
2023/12/28 00:14:51;;;;;;;6.65;5.78;;;18.20;73.10;;;;;;5010993;28;20135;-82
2023/12/28 00:17:17;;;;;;;5.97;5.45;;;18.20;73.20;;;;;;4981062;28;20057;-82
2023/12/28 00:19:42;;;;;;;5.90;5.40;;;18.20;73.20;;;;;;4977368;28;20415;-83
2023/12/28 00:22:08;;;;;;;5.47;5.00;;;18.20;74.00;;;;;;4980023;28;20038;-83
2023/12/28 00:24:33;;;;;;;5.93;5.30;;;18.20;73.30;;;;;;4997764;28;20093;-84
2023/12/28 00:26:59;;;;;;;6.40;5.80;;;18.20;73.30;;;;;;4998770;28;20495;-84
2023/12/28 00:29:24;;;;;;;6.47;5.00;;;18.10;73.20;;;;;;4994022;28;20068;-85
2023/12/28 00:31:50;;;;;;;5.88;4.30;;;18.10;73.20;;;;;;4975347;28;20044;-84
2023/12/28 00:34:15;;;;;;;5.38;4.88;;;18.10;73.20;;;;;;4999169;28;20127;-84
2023/12/28 00:36:41;;;;;;;6.30;5.15;;;18.10;73.20;;;;;;5008049;28;20508;-84
2023/12/28 00:39:07;;;;;;;5.80;5.30;;;18.10;73.00;;;;;;4992787;28;20139;-84
2023/12/28 00:41:32;;;;;;;5.10;4.60;;;18.00;73.10;;;;;;4994701;28;20053;-85
2023/12/28 00:43:58;;;;;;;4.82;4.43;;;18.00;73.20;;;;;;4990307;28;20040;-84
2023/12/28 00:46:23;;;;;;;5.55;5.05;;;18.00;73.20;;;;;;5014919;28;20068;-84
2023/12/28 00:48:49;;;;;;;5.43;4.95;;;18.00;73.20;;;;;;4993524;28;20516;-85
2023/12/28 00:51:14;;;;;;;4.93;4.53;;;18.00;73.90;;;;;;4987340;28;20116;-85
2023/12/28 00:53:40;;;;;;;4.68;4.22;;;18.00;72.90;;;;;;4988219;28;20042;-84
2023/12/28 00:56:06;;;;;;;5.75;4.70;;;18.00;73.30;;;;;;4989822;28;20427;-85
2023/12/28 00:58:31;;;;;;;4.43;4.07;;;18.00;72.80;;;;;;4993867;28;20217;-85
2023/12/28 01:00:57;;;;;;;4.30;4.00;;;18.00;73.00;;;;;;4980864;28;20057;-85
2023/12/28 01:03:23;;;;;;;4.15;3.85;;;18.00;73.00;;;;;;4997251;28;20050;-84
2023/12/28 01:05:50;;;;;;;4.47;4.07;;;18.00;73.10;;;;;;4980658;28;20046;-85
2023/12/28 01:08:17;;;;;;;4.68;4.28;;;18.00;73.30;;;;;;4999428;28;20176;-85
2023/12/28 01:10:43;;;;;;;4.45;4.15;;;17.90;72.80;;;;;;4989995;28;20045;-84
2023/12/28 01:13:08;;;;;;;6.05;4.18;;;17.90;72.60;;;;;;4991598;28;20034;-84
2023/12/28 01:15:34;;;;;;;4.50;4.10;;;17.90;73.10;;;;;;4989016;28;20047;-84
2023/12/28 01:17:59;;;;;;;4.38;4.03;;;17.90;72.50;;;;;;5012213;28;20049;-84
2023/12/28 01:20:25;;;;;;;3.80;3.50;;;17.90;72.50;;;;;;4988471;28;20042;-84
2023/12/28 01:22:51;;;;;;;4.90;4.40;;;17.90;72.60;;;;;;4984439;28;20046;-84
2023/12/28 01:25:16;;;;;;;4.72;4.32;;;17.90;73.00;;;;;;5000359;28;20120;-83
2023/12/28 01:27:42;;;;;;;3.95;3.55;;;17.90;73.10;;;;;;5001904;28;20053;-83
2023/12/28 01:30:08;;;;;;;3.95;3.65;;;17.90;73.00;;;;;;4969631;28;20132;-84
2023/12/28 01:32:33;;;;;;;3.78;3.47;;;17.90;72.50;;;;;;4981082;28;20054;-84
2023/12/28 01:34:59;;;;;;;3.95;3.55;;;17.90;72.50;;;;;;4992203;28;20499;-83
2023/12/28 01:37:25;;;;;;;3.53;3.22;;;17.80;72.40;;;;;;4974614;28;20078;-84
2023/12/28 01:39:50;;;;;;;3.90;3.50;;;17.90;72.50;;;;;;4996412;28;20045;-84
2023/12/28 01:42:16;;;;;;;3.88;3.60;;;17.90;72.50;;;;;;4997253;28;20044;-84
2023/12/28 01:44:41;;;;;;;4.55;4.15;;;17.80;72.30;;;;;;5001257;28;20061;-85
2023/12/28 01:47:07;;;;;;;4.03;3.72;;;17.80;72.50;;;;;;4974145;28;20034;-85
2023/12/28 01:49:33;;;;;;;3.65;3.35;;;17.80;72.40;;;;;;4996442;28;20046;-86
2023/12/28 01:52:00;;;;;;;3.72;3.42;;;17.80;72.40;;;;;;4992869;28;20504;-84
2023/12/28 01:54:26;;;;;;;4.22;3.83;;;17.80;72.40;;;;;;4995083;28;20092;-84
2023/12/28 01:56:51;;;;;;;3.45;3.15;;;17.80;72.20;;;;;;4995957;28;20124;-85
2023/12/28 01:59:18;;;;;;;3.53;3.22;;;17.80;72.30;;;;;;4978980;28;20056;-85
2023/12/28 02:01:44;;;;;;;3.40;3.10;;;17.80;72.20;;;;;;4995180;28;20081;-86
2023/12/28 02:04:10;;;;;;;3.70;3.10;;;17.80;72.40;;;;;;4993759;28;20053;-85
2023/12/28 02:06:36;;;;;;;3.60;3.13;;;17.70;72.30;;;;;;4995935;28;20045;-84
2023/12/28 02:09:01;;;;;;;3.25;3.00;;;17.70;72.30;;;;;;4980333;28;20060;-84
2023/12/28 02:11:27;;;;;;;3.80;3.50;;;17.70;72.30;;;;;;4994505;28;20515;-84
2023/12/28 02:13:52;;;;;;;3.78;3.47;;;17.70;73.10;;;;;;4967835;28;20386;-85
2023/12/28 02:16:33;;;;;;;3.33;2.95;;;17.70;72.50;;;;;;4998531;28;20076;-85
2023/12/28 02:19:03;;;;;;;3.00;2.70;;;17.70;72.50;;;;;;4997334;28;20475;-84
2023/12/28 02:21:29;;;;;;;3.13;2.83;;;17.70;72.30;;;;;;4989440;28;20042;-84
2023/12/28 02:23:54;;;;;;;3.20;3.00;;;17.70;72.40;;;;;;4995845;28;20040;-84
2023/12/28 02:26:20;;;;;;;4.00;3.03;;;17.70;72.40;;;;;;5012542;28;20064;-86
2023/12/28 02:28:45;;;;;;;3.17;2.97;;;17.70;72.30;;;;;;4978586;28;20164;-84
2023/12/28 02:31:25;;;;;;;3.17;2.90;;;17.60;72.40;;;;;;4987571;28;20138;-85
2023/12/28 02:33:58;;;;;;;3.33;2.70;;;17.60;72.50;;;;;;4991692;28;20112;-85
2023/12/28 02:36:23;;;;;;;3.47;3.17;;;17.60;72.50;;;;;;4978515;28;20103;-85
2023/12/28 02:38:49;;;;;;;2.92;2.72;;;17.60;72.60;;;;;;4980620;28;20033;-86
2023/12/28 02:41:14;;;;;;;3.00;2.70;;;17.60;72.60;;;;;;4976321;28;20042;-85
2023/12/28 02:43:40;;;;;;;2.65;2.45;;;17.60;72.60;;;;;;4995295;28;20049;-84
2023/12/28 02:46:05;;;;;;;2.60;2.40;;;17.60;72.60;;;;;;4994555;28;20049;-84
2023/12/28 02:48:31;;;;;;;4.18;3.25;;;17.60;72.40;;;;;;4971386;28;20045;-85
2023/12/28 02:50:56;;;;;;;2.60;2.40;;;17.60;72.60;;;;;;5005922;28;20138;-85
2023/12/28 02:53:22;;;;;;;3.47;2.58;;;17.60;72.50;;;;;;4976162;28;20542;-84
2023/12/28 02:55:48;;;;;;;2.80;2.60;;;17.60;72.60;;;;;;5003559;28;20124;-83
2023/12/28 02:58:13;;;;;;;3.10;2.47;;;17.60;73.50;;;;;;5007450;28;20128;-83
2023/12/28 03:00:39;;;;;;;2.33;2.13;;;17.60;72.60;;;;;;4991819;28;20435;-85
2023/12/28 03:03:04;;;;;;;2.20;2.10;;;17.60;72.60;;;;;;5006332;28;20034;-85
2023/12/28 03:05:30;;;;;;;2.55;2.35;;;17.60;72.60;;;;;;5006209;28;20133;-85
2023/12/28 03:07:57;;;;;;;2.40;2.20;;;17.60;72.70;;;;;;4984898;28;20037;-86
2023/12/28 03:10:22;;;;;;;4.07;2.30;;;17.60;72.70;;;;;;4969761;28;20049;-86
2023/12/28 03:12:48;;;;;;;2.60;2.40;;;17.60;72.70;;;;;;4983584;28;20069;-86
2023/12/28 03:15:13;;;;;;;3.13;2.83;;;17.60;72.70;;;;;;4994729;28;20096;-85
2023/12/28 03:17:39;;;;;;;2.95;2.65;;;17.60;72.60;;;;;;4983564;28;20510;-84
2023/12/28 03:20:05;;;;;;;2.72;2.50;;;17.60;72.70;;;;;;4979501;28;20096;-84
2023/12/28 03:22:31;;;;;;;2.33;2.13;;;17.50;72.60;;;;;;4992235;28;20046;-84
2023/12/28 03:24:56;;;;;;;2.63;2.42;;;17.50;72.70;;;;;;4993080;28;20054;-84
2023/12/28 03:27:22;;;;;;;2.72;2.53;;;17.50;72.60;;;;;;4992737;28;20047;-84
2023/12/28 03:29:47;;;;;;;2.78;2.05;;;17.50;72.70;;;;;;4990630;28;20049;-84
2023/12/28 03:32:14;;;;;;;2.22;2.00;;;17.50;72.70;;;;;;4991035;28;20045;-84
2023/12/28 03:34:39;;;;;;;2.65;2.45;;;17.50;72.70;;;;;;4994785;28;20042;-84
2023/12/28 03:37:05;;;;;;;2.30;2.10;;;17.50;72.70;;;;;;4996333;28;20149;-84
2023/12/28 03:39:30;;;;;;;2.35;1.90;;;17.40;72.70;;;;;;4998401;28;20073;-85
2023/12/28 03:41:56;;;;;;;5.38;2.45;;;17.50;72.70;;;;;;4993538;28;20042;-85
2023/12/28 03:44:21;;;;;;;2.90;2.53;;;17.50;72.70;;;;;;5004836;28;20046;-85
2023/12/28 03:46:50;;;;;;;2.83;2.10;;;17.50;72.80;;;;;;5000795;28;20044;-85
2023/12/28 03:49:19;;;;;;;2.58;2.05;;;17.50;72.80;;;;;;5017070;28;20056;-84
2023/12/28 03:51:45;;;;;;;2.58;2.03;;;17.50;72.70;;;;;;5012779;28;20085;-84
2023/12/28 03:54:11;;;;;;;2.35;2.20;;;17.50;72.70;;;;;;4991524;28;20497;-84
2023/12/28 03:56:39;;;;;;;2.95;2.15;;;17.40;72.60;;;;;;4985466;28;20061;-84
2023/12/28 03:59:05;;;;;;;2.10;1.90;;;17.40;72.60;;;;;;4993583;28;20073;-84
2023/12/28 04:01:31;;;;;;;2.13;2.03;;;17.40;72.70;;;;;;4995490;28;20504;-84
2023/12/28 04:03:56;;;;;;;1.95;1.85;;;17.40;72.60;;;;;;4995759;28;20049;-84
2023/12/28 04:06:22;;;;;;;2.17;1.98;;;17.40;72.70;;;;;;5014927;28;20104;-84
2023/12/28 04:08:47;;;;;;;2.22;1.60;;;17.40;72.70;;;;;;4993448;28;20419;-85
2023/12/28 04:11:13;;;;;;;2.67;1.63;;;17.40;72.60;;;;;;4996315;28;20037;-83
2023/12/28 04:13:39;;;;;;;1.80;1.70;;;17.40;72.70;;;;;;5000826;28;20038;-84
2023/12/28 04:16:04;;;;;;;2.15;1.95;;;17.40;72.70;;;;;;5000111;28;20248;-85
2023/12/28 04:18:30;;;;;;;1.85;1.75;;;17.40;72.60;;;;;;4985738;28;20033;-85
2023/12/28 04:20:56;;;;;;;1.85;1.67;;;17.40;72.60;;;;;;5012037;28;20033;-85
2023/12/28 04:23:21;;;;;;;1.98;1.77;;;17.40;72.70;;;;;;4999082;28;20582;-85
2023/12/28 04:25:47;;;;;;;3.10;1.85;;;17.40;72.60;;;;;;4999136;28;20029;-85
2023/12/28 04:28:13;;;;;;;2.13;1.80;;;17.40;73.50;;;;;;4990178;28;20052;-86
2023/12/28 04:30:38;;;;;;;1.55;1.45;;;17.40;72.60;;;;;;5000531;28;20403;-85
2023/12/28 04:33:04;;;;;;;1.88;1.60;;;17.40;72.60;;;;;;5005733;28;20085;-85
2023/12/28 04:35:30;;;;;;;1.73;1.63;;;17.40;72.60;;;;;;4966931;28;20486;-85
2023/12/28 04:37:56;;;;;;;1.55;1.40;;;17.40;72.70;;;;;;4975040;28;20034;-85
2023/12/28 04:40:21;;;;;;;2.13;1.75;;;17.30;73.30;;;;;;4993055;28;20042;-85
2023/12/28 04:42:47;;;;;;;2.00;1.77;;;17.40;72.60;;;;;;4998411;28;20121;-85
2023/12/28 04:45:12;;;;;;;1.63;1.48;;;17.30;72.60;;;;;;4979626;28;20181;-84
2023/12/28 04:47:38;;;;;;;1.60;1.50;;;17.40;72.60;;;;;;4993694;28;20377;-85
2023/12/28 04:50:04;;;;;;;1.80;1.70;;;17.30;72.50;;;;;;4977123;28;20060;-85
2023/12/28 04:52:30;;;;;;;1.77;1.67;;;17.30;72.60;;;;;;4997068;28;20419;-85
2023/12/28 04:54:56;;;;;;;2.40;1.95;;;17.30;72.60;;;;;;4991730;28;20060;-85
2023/12/28 04:57:24;;;;;;;2.28;1.65;;;17.30;72.60;;;;;;4973781;28;20052;-85
2023/12/28 04:59:49;;;;;;;1.60;1.50;;;17.30;72.60;;;;;;4995848;28;20092;-84
2023/12/28 05:02:15;;;;;;;1.85;1.65;;;17.30;72.50;;;;;;5011563;28;20406;-85
2023/12/28 05:04:41;;;;;;;1.42;1.33;;;17.30;72.50;;;;;;4992272;28;20035;-84
2023/12/28 05:07:06;;;;;;;1.70;1.48;;;17.30;72.50;;;;;;4993809;28;20523;-85
2023/12/28 05:09:32;;;;;;;1.80;1.45;;;17.30;72.50;;;;;;4978617;28;20439;-85
2023/12/28 05:11:58;;;;;;;1.90;1.80;;;17.30;72.60;;;;;;4989534;28;20045;-83
2023/12/28 05:14:23;;;;;;;2.22;1.50;;;17.30;73.40;;;;;;5014217;28;20034;-83
2023/12/28 05:16:49;;;;;;;1.58;1.48;;;17.30;72.40;;;;;;4993238;28;20072;-83
2023/12/28 05:19:15;;;;;;;1.40;1.30;;;17.30;72.50;;;;;;4976790;28;20088;-83
2023/12/28 05:21:40;;;;;;;1.55;1.45;;;17.30;72.50;;;;;;4991679;28;20045;-83
2023/12/28 05:24:06;;;;;;;1.95;1.63;;;17.30;72.50;;;;;;4996074;28;20516;-84
2023/12/28 05:26:31;;;;;;;1.42;1.33;;;17.30;72.50;;;;;;4994652;28;20081;-83
2023/12/28 05:28:57;;;;;;;1.50;1.40;;;17.30;72.50;;;;;;4996275;28;20041;-83
2023/12/28 05:31:23;;;;;;;1.25;1.15;;;17.30;72.50;;;;;;5015014;28;20028;-83
2023/12/28 05:33:48;;;;;;;1.35;1.25;;;17.20;72.50;;;;;;4989547;28;20050;-83
2023/12/28 05:36:14;;;;;;;2.20;1.65;;;17.20;72.50;;;;;;5005561;28;20173;-83
2023/12/28 05:38:39;;;;;;;1.45;1.35;;;17.20;72.50;;;;;;4997266;28;20053;-83
2023/12/28 05:41:05;;;;;;;1.17;1.08;;;17.20;72.50;;;;;;4991885;28;20391;-85
2023/12/28 05:43:30;;;;;;;2.08;1.50;;;17.30;72.50;;;;;;4995085;28;20393;-84
2023/12/28 05:45:56;;;;;;;1.35;1.25;;;17.20;72.50;;;;;;4991402;28;20060;-84
2023/12/28 05:48:21;;;;;;;1.58;1.40;;;17.20;72.50;;;;;;4993320;28;20033;-85
2023/12/28 05:50:47;;;;;;;1.83;1.33;;;17.20;72.50;;;;;;4997414;28;20099;-86
2023/12/28 05:53:14;;;;;;;1.20;1.08;;;17.20;72.40;;;;;;4996843;28;20590;-85
2023/12/28 05:55:43;;;;;;;1.58;1.25;;;17.20;72.50;;;;;;4991410;28;20080;-84
2023/12/28 05:58:08;;;;;;;1.60;1.42;;;17.20;72.50;;;;;;4996774;28;20689;-84
2023/12/28 06:00:34;;;;;;;1.40;1.27;;;17.20;72.60;;;;;;4971218;28;20678;-83
2023/12/28 06:03:04;;;;;;;1.40;1.30;;;17.20;72.50;;;;;;4976447;28;20038;-84
2023/12/28 06:05:30;;;;;;;1.67;1.45;;;17.20;72.50;;;;;;4991226;28;20058;-83
2023/12/28 06:07:55;;;;;;;1.20;1.10;;;17.20;72.50;;;;;;4984670;28;20519;-83
2023/12/28 06:10:21;;;;;;;1.50;1.20;;;17.20;72.50;;;;;;4997199;28;20698;-84
2023/12/28 06:12:47;;;;;;;0.90;0.90;;;17.20;72.50;;;;;;4984331;28;20038;-85
2023/12/28 06:15:12;;;;;;;1.83;1.55;;;17.20;72.50;;;;;;4957519;28;20077;-84
2023/12/28 06:17:38;;;;;;;0.93;0.90;;;17.20;72.50;;;;;;4984472;28;20042;-85
2023/12/28 06:20:04;;;;;;;1.33;1.23;;;17.20;72.50;;;;;;4995776;28;20592;-84
2023/12/28 06:22:30;;;;;;;1.33;1.23;;;17.20;72.60;;;;;;4985915;28;20043;-85
2023/12/28 06:24:55;;;;;;;1.35;1.10;;;17.20;72.60;;;;;;4975112;28;20042;-81
2023/12/28 06:27:21;;;;;;;1.60;1.02;;;17.20;72.40;;;;;;4982529;28;20042;-82
2023/12/28 06:29:47;;;;;;;2.10;1.02;;;17.20;72.50;;;;;;4994322;28;20034;-82
2023/12/28 06:32:12;;;;;;;1.45;1.35;;;17.20;72.50;;;;;;4978943;28;20524;-82
2023/12/28 06:34:38;;;;;;;0.95;0.93;;;17.20;72.50;;;;;;4983136;28;20087;-82
2023/12/28 06:37:03;;;;;;;1.70;1.38;;;17.10;72.40;;;;;;4985048;28;20074;-82
2023/12/28 06:39:29;;;;;;;1.88;1.55;;;17.10;72.40;;;;;;4980443;28;20276;-82
2023/12/28 06:41:55;;;;;;;1.80;1.30;;;17.10;72.50;;;;;;4991731;28;20458;-82
2023/12/28 06:44:20;;;;;;;1.27;1.10;;;17.10;73.40;;;;;;4996880;28;20092;-82
2023/12/28 06:46:46;;;;;;;1.50;1.20;;;17.10;72.50;;;;;;4980334;28;20046;-81
2023/12/28 06:49:11;;;;;;;1.50;1.10;;;17.10;72.60;;;;;;4988549;28;20026;-81
2023/12/28 06:51:37;;;;;;;1.27;1.00;;;17.10;72.40;;;;;;4974327;28;20303;-82
2023/12/28 06:54:03;;;;;;;1.33;1.20;;;17.10;72.50;;;;;;4971060;28;20076;-81
2023/12/28 06:56:28;;;;;;;1.75;1.30;;;17.10;72.50;;;;;;5001110;28;20072;-81
2023/12/28 06:58:54;;;;;;;1.13;1.00;;;17.10;72.50;;;;;;4966841;28;20053;-80
2023/12/28 07:01:19;;;;;;;1.50;1.40;;;17.10;73.20;;;;;;4982859;28;20038;-82
2023/12/28 07:03:45;;;;;;;1.25;1.13;;;17.10;72.60;;;;;;4990645;28;20042;-82
2023/12/28 07:06:10;;;;;;;1.40;1.00;;;17.10;72.40;;;;;;4977855;28;20496;-82
2023/12/28 07:08:36;;;;;;;1.25;1.15;;;17.10;72.40;;;;;;5004316;28;20081;-82
2023/12/28 07:11:02;;;;;;;1.77;1.50;;;17.10;72.50;;;;;;5004444;28;20058;-82
2023/12/28 07:13:27;;;;;;;1.08;0.95;;;17.10;72.40;;;;;;5004764;28;20442;-83
2023/12/28 07:15:53;;;;;;;1.45;1.17;;;17.10;72.40;;;;;;5006506;28;20132;-81
2023/12/28 07:18:19;;;;;;;1.50;1.40;;;17.10;72.40;;;;;;4988354;28;20137;-81
2023/12/28 07:20:44;;;;;;;1.25;1.08;;;17.10;72.40;;;;;;5007689;28;20053;-81
2023/12/28 07:23:10;;;;;;;1.23;0.93;;;17.00;72.40;;;;;;5010391;28;20034;-82
2023/12/28 07:25:35;;;;;;;1.38;1.10;;;17.10;72.40;;;;;;5009804;28;20057;-82
2023/12/28 07:28:01;;;;;;;1.67;1.38;;;17.10;72.50;;;;;;4976663;28;20045;-83
2023/12/28 07:30:27;;;;;;;2.22;1.40;;;17.10;73.20;;;;;;4992064;28;20108;-82
2023/12/28 07:32:53;;;;;;;1.63;1.10;;;17.10;72.40;;;;;;5013478;28;21170;-82
2023/12/28 07:35:18;;;;;;;1.05;0.95;;;17.10;72.40;;;;;;4991935;28;20504;-82
2023/12/28 07:37:44;;;;;;;2.10;1.20;;;17.10;72.40;;;;;;4977473;28;20041;-81
2023/12/28 07:40:11;;;;;;;1.10;1.00;;;17.00;72.30;;;;;;4992224;28;20140;-82
2023/12/28 07:42:37;;;;;;;2.33;1.20;;;17.10;72.30;;;;;;4990205;28;20812;-82
2023/12/28 07:45:03;;;;;;;1.33;0.90;;;17.00;72.30;;;;;;4981728;28;20118;-83
2023/12/28 07:47:29;;;;;;;0.60;0.52;;;17.00;72.30;;;;;;4984293;28;20074;-83
2023/12/28 07:49:54;;;;;;;1.70;1.00;;;17.00;72.40;;;;;;4982371;28;20562;-82
2023/12/28 07:52:20;;;;;;;1.70;1.25;;;17.00;72.40;;;;;;4991901;28;20647;-84
2023/12/28 07:54:45;;;;;;;1.60;1.20;;;17.00;72.30;;;;;;4975078;28;20732;-83
2023/12/28 07:57:11;;;;;;;0.93;0.90;;;17.00;72.40;;;;;;4980962;28;20141;-82
2023/12/28 07:59:37;;;;;;;0.98;0.88;;;17.00;72.30;;;;;;4979491;28;20054;-83
2023/12/28 08:02:02;;;;;;;1.48;1.10;;;17.00;72.40;;;;;;4981063;28;20473;-82
2023/12/28 08:04:28;;;;;;;1.10;1.00;;;17.00;72.30;;;;;;4985588;28;20038;-84
2023/12/28 08:06:54;;;;;;;2.22;1.20;;;17.00;72.40;;;;;;4995026;28;20561;-86
2023/12/28 08:09:19;;;;;;;1.70;0.93;;;17.00;72.30;;;;;;4993072;28;20030;-83
2023/12/28 08:11:45;;;;;;;1.48;1.13;;;17.00;72.70;;;;;;4990930;28;20041;-82
2023/12/28 08:14:11;;;;;;;0.88;0.88;;;17.10;72.80;;;;;;4994840;28;20033;-81
2023/12/28 08:16:36;;;;;;;1.75;0.90;;;17.10;72.40;;;;;;4996430;28;20121;-82
2023/12/28 08:19:02;;;;;;;1.88;1.10;;;17.10;72.30;;;;;;4998629;28;20037;-82
2023/12/28 08:21:27;;;;;;;3.60;3.28;;;17.10;72.40;;;;;;4998173;28;20482;-82
2023/12/28 08:23:53;;;;;;;3.22;2.92;;;17.10;72.60;;;;;;5006486;28;20041;-82
2023/12/28 08:26:19;;;;;;;3.95;2.25;;;17.10;72.00;;;;;;5011216;28;20052;-83
2023/12/28 08:28:44;;;;;;;2.47;1.90;;;17.20;72.50;;;;;;4982101;28;20030;-83
2023/12/28 08:31:10;;;;;;;1.65;1.30;;;17.20;72.60;;;;;;5020951;28;20612;-82
2023/12/28 08:33:39;;;;;;;1.52;1.40;;;17.20;73.00;;;;;;4997352;28;20085;-84
2023/12/28 08:36:05;;;;;;;2.47;1.92;;;17.20;73.40;;;;;;4997142;28;20077;-82
2023/12/28 08:38:31;;;;;;;2.53;1.50;;;17.20;73.20;;;;;;4989292;28;20393;-83
2023/12/28 08:40:56;;;;;;;1.88;1.67;;;17.20;74.10;;;;;;4981117;28;20081;-84
2023/12/28 08:43:22;;;;;;;2.20;1.67;;;17.20;73.50;;;;;;4991095;28;20440;-83
2023/12/28 08:45:48;;;;;;;1.73;1.40;;;17.20;73.50;;;;;;4972745;28;20093;-81
2023/12/28 08:48:14;;;;;;;2.08;1.80;;;17.20;73.40;;;;;;4983124;28;20053;-83
2023/12/28 08:50:39;;;;;;;2.15;1.50;;;17.30;73.40;;;;;;4974439;28;20050;-82
2023/12/28 08:53:05;;;;;;;1.98;1.85;;;17.30;72.90;;;;;;4979970;28;20381;-82
2023/12/28 08:55:31;;;;;;;2.13;1.40;;;17.30;73.20;;;;;;5005397;28;20054;-83
2023/12/28 08:57:56;;;;;;;2.80;1.77;;;17.30;73.30;;;;;;4976746;28;20062;-82
2023/12/28 09:00:22;;;;;;;1.85;1.65;;;17.30;73.30;;;;;;4968570;28;20436;-82
2023/12/28 09:02:47;;;;;;;1.88;1.52;;;17.30;73.30;;;;;;4990894;28;20042;-83
2023/12/28 09:05:14;;;;;;;1.98;1.73;;;17.30;73.50;;;;;;4999584;28;20392;-81
2023/12/28 09:07:42;;;;;;;2.55;1.75;;;17.20;73.40;;;;;;4967048;28;20038;-80
2023/12/28 09:10:12;;;;;;;1.40;1.30;;;17.30;73.40;;;;;;4975153;28;20066;-82
2023/12/28 09:12:37;;;;;;;1.33;1.23;;;17.30;72.90;;;;;;4986274;28;20039;-83
2023/12/28 09:15:05;;;;;;;1.63;1.52;;;17.40;73.00;;;;;;4991984;28;20044;-83
2023/12/28 09:17:30;;;;;;;2.65;1.70;;;17.30;73.20;;;;;;4973483;28;20041;-83
2023/12/28 09:19:57;;;;;;;3.08;1.60;;;17.30;73.20;;;;;;4984850;28;20424;-81
2023/12/28 09:22:23;;;;;;;1.70;1.50;;;17.40;73.30;;;;;;4994523;28;20278;-81
2023/12/28 09:24:49;;;;;;;1.45;1.35;;;17.40;73.40;;;;;;4966319;28;20575;-82
2023/12/28 09:27:14;;;;;;;1.45;1.35;;;17.40;73.30;;;;;;4993132;28;20049;-82
2023/12/28 09:29:40;;;;;;;1.77;1.48;;;17.40;73.50;;;;;;4992672;28;20049;-82
2023/12/28 09:32:06;;;;;;;3.53;1.35;;;17.40;73.40;;;;;;4992836;28;20510;-81
2023/12/28 09:34:31;;;;;;;3.58;1.52;;;17.40;73.40;;;;;;4990774;28;20053;-83
2023/12/28 09:36:57;;;;;;;2.00;1.38;;;17.40;73.10;;;;;;4989087;28;20508;-82
2023/12/28 09:39:23;;;;;;;2.38;1.65;;;17.40;73.00;;;;;;4991680;28;20050;-82
2023/12/28 09:41:52;;;;;;;1.48;1.38;;;17.40;73.00;;;;;;4989792;28;20034;-81
2023/12/28 09:44:18;;;;;;;1.67;1.50;;;17.50;72.90;;;;;;4996598;28;20030;-81
2023/12/28 09:46:46;;;;;;;1.98;1.20;;;17.50;72.90;;;;;;4990856;28;20026;-82
2023/12/28 09:49:11;;;;;;;1.33;1.23;;;17.50;72.50;;;;;;4991003;28;20088;-82
2023/12/28 09:51:37;;;;;;;1.52;1.10;;;17.50;72.80;;;;;;5008260;28;20034;-80
2023/12/28 09:54:03;;;;;;;1.58;1.10;;;17.60;72.30;;;;;;4966518;28;20532;-79
2023/12/28 09:56:29;;;;;;;1.77;1.10;;;17.60;72.30;;;;;;4989798;28;20050;-81
2023/12/28 09:58:55;;;;;;;2.15;1.08;;;17.60;72.40;;;;;;4988640;28;20031;-81
2023/12/28 10:01:20;;;;;;;1.42;1.30;;;17.70;73.00;;;;;;5021376;28;20034;-80
2023/12/28 10:03:46;;;;;;;3.88;1.13;;;17.70;73.00;;;;;;4981211;28;20034;-80
2023/12/28 10:06:15;;;;;;;1.33;1.15;;;17.60;73.50;;;;;;4996989;28;20535;-79
2023/12/28 10:08:48;;;;;;;1.67;1.45;;;17.70;73.80;;;;;;4987566;28;20550;-79
2023/12/28 10:11:18;;;;;;;2.83;1.20;;;17.70;73.70;;;;;;4983995;28;20038;-78
2023/12/28 10:13:43;;;;;;;2.22;1.50;;;17.70;74.00;;;;;;4974855;28;20049;-80
2023/12/28 10:16:12;;;;;;;1.90;0.85;;;17.70;74.20;;;;;;5008776;28;20679;-82
2023/12/28 10:18:44;;;;;;;3.97;1.42;;;17.80;74.60;;;;;;5001245;28;20048;-82
2023/12/28 10:21:10;;;;;;;1.98;1.35;;;17.80;74.60;;;;;;4977516;28;20491;-81
2023/12/28 10:23:36;;;;;;;2.05;1.33;;;17.70;74.20;;;;;;4985764;28;20042;-81
2023/12/28 10:26:02;;;;;;;3.40;1.23;;;17.70;74.20;;;;;;4995041;28;20026;-81
2023/12/28 10:28:27;;;;;;;1.13;1.00;;;17.80;74.50;;;;;;4987134;28;20049;-82
2023/12/28 10:30:56;;;;;;;1.45;1.15;;;17.70;74.20;;;;;;4988538;28;20046;-82
2023/12/28 10:33:22;;;;;;;2.65;1.30;;;17.80;74.10;;;;;;4988788;28;20125;-81
2023/12/28 10:35:49;;;;;;;1.88;1.20;;;17.80;74.00;;;;;;4993782;28;20495;-81
2023/12/28 10:38:16;;;;;;;1.80;1.10;;;17.80;74.10;;;;;;4987539;28;20049;-81
2023/12/28 10:40:42;;;;;;;1.67;1.10;;;17.70;73.80;;;;;;5003617;28;20034;-81
2023/12/28 10:43:07;;;;;;;3.15;1.75;;;17.70;73.70;;;;;;4983177;28;20050;-81
2023/12/28 10:45:35;;;;;;;2.35;1.27;;;17.70;73.80;;;;;;4992371;28;20065;-82
2023/12/28 10:48:08;;;;;;;1.42;1.20;;;17.70;73.60;;;;;;4986624;28;20431;-82
2023/12/28 10:50:41;;;;;;;1.67;0.90;;;17.80;73.70;;;;;;4989726;28;20046;-81
2023/12/28 10:53:39;;;;;;;1.55;1.30;;;17.80;73.60;;;;;;4985818;28;20435;-80
2023/12/28 10:56:40;;;;;;;1.17;1.08;;;17.80;73.30;;;;;;4987713;28;20046;-80
2023/12/28 10:59:21;;;;;;;1.25;1.02;;;17.80;73.60;;;;;;4999933;28;20038;-81
2023/12/28 11:01:47;;;;;;;1.40;1.02;;;17.80;73.20;;;;;;4979084;28;20100;-81
2023/12/28 11:04:19;;;;;;;2.70;1.45;;;17.80;73.30;;;;;;4981618;28;20042;-80
2023/12/28 11:06:44;;;;;;;2.08;1.10;;;17.80;73.20;;;;;;4984986;28;20077;-80
2023/12/28 11:09:10;;;;;;;1.42;1.05;;;17.80;73.10;;;;;;4991947;28;20066;-81
2023/12/28 11:11:36;;;;;;;1.15;0.90;;;17.90;73.00;;;;;;4969944;28;20104;-80
2023/12/28 11:14:02;;;;;;;2.80;1.00;;;17.90;72.70;;;;;;4990365;28;20175;-81
2023/12/28 11:16:28;;;;;;;1.27;1.17;;;17.90;72.80;;;;;;4973931;28;20049;-81
2023/12/28 11:18:54;;;;;;;1.40;1.05;;;17.90;73.80;;;;;;4978260;28;20137;-82
2023/12/28 11:21:19;;;;;;;2.38;1.05;;;17.90;73.00;;;;;;5001235;28;20140;-80
2023/12/28 11:23:46;;;;;;;1.20;0.98;;;17.90;73.20;;;;;;4972537;28;20033;-81
2023/12/28 11:26:19;;;;;;;1.33;1.10;;;17.90;73.10;;;;;;4975618;28;20450;-80
2023/12/28 11:28:45;;;;;;;1.38;0.70;;;18.00;72.70;;;;;;5000960;28;20566;-81
2023/12/28 11:31:13;;;;;;;2.17;1.33;;;18.10;72.60;;;;;;4984430;28;20076;-80
2023/12/28 11:33:46;;;;;;;3.40;1.80;;;18.20;73.00;;;;;;4974695;28;20463;-81
2023/12/28 11:36:22;;;;;;;1.85;1.70;;;18.10;73.20;;;;;;4999049;28;20503;-80
2023/12/28 11:38:48;;;;;;;6.70;3.03;;;18.20;73.90;;;;;;4980047;28;20187;-80
2023/12/28 11:41:16;;;;;;;7.78;4.05;;;18.10;74.20;;;;;;4963212;28;20149;-80
2023/12/28 11:43:42;;;;;;;9.63;7.05;;;18.10;78.20;;;;;;4984720;28;20082;-81
2023/12/28 11:46:08;;;;;;;6.22;5.05;;;18.10;78.10;;;;;;4986544;28;20053;-81
2023/12/28 11:48:34;;;;;;;5.68;3.60;;;18.00;74.10;;;;;;5005158;28;20493;-80
2023/12/28 11:51:00;;;;;;;3.33;3.03;;;18.00;76.20;;;;;;4990220;28;20038;-81
2023/12/28 11:53:26;;;;;;;4.40;2.90;;;18.00;75.90;;;;;;4991185;28;20113;-81
2023/12/28 11:55:51;;;;;;;3.15;2.88;;;18.10;77.20;;;;;;4971124;28;20057;-81
2023/12/28 11:58:18;;;;;;;4.85;2.25;;;18.10;80.90;;;;;;4995138;28;20054;-82
2023/12/28 12:00:43;;;;;;;3.05;2.17;;;18.10;82.30;;;;;;4991546;28;20053;-83
2023/12/28 12:03:12;;;;;;;2.10;1.75;;;18.10;80.30;;;;;;4983160;28;20042;-81
2023/12/28 12:05:38;;;;;;;2.40;1.75;;;18.10;79.20;;;;;;4965737;28;20065;-83
2023/12/28 12:08:05;;;;;;;1.75;1.60;;;18.20;77.80;;;;;;4637557;28;10000323;-81
2023/12/28 12:10:32;;;;;;;3.55;2.00;;;18.30;77.10;;;;;;4972513;28;21172;-81
2023/12/28 12:12:57;;;;;;;2.85;2.30;;;18.30;76.50;;;;;;4983568;28;20539;-81
2023/12/28 12:15:23;;;;;;;1.95;1.45;;;18.30;76.30;;;;;;4989743;28;20120;-82
2023/12/28 12:17:48;;;;;;;2.33;1.65;;;18.20;75.90;;;;;;5019429;28;20519;-82
2023/12/28 12:20:14;;;;;;;1.98;1.77;;;18.20;76.20;;;;;;4972829;28;20377;-82
2023/12/28 12:22:40;;;;;;;2.85;1.70;;;18.20;75.30;;;;;;4992523;28;20515;-82
2023/12/28 12:25:05;;;;;;;2.88;1.60;;;18.20;75.00;;;;;;4968394;28;20120;-82
2023/12/28 12:27:31;;;;;;;2.47;1.52;;;18.30;74.80;;;;;;4998762;28;20057;-82
2023/12/28 12:29:57;;;;;;;1.35;1.17;;;18.20;74.80;;;;;;5001898;28;20062;-82
2023/12/28 12:32:23;;;;;;;5.47;1.88;;;18.20;74.60;;;;;;4990175;28;20127;-82
2023/12/28 12:34:49;;;;;;;2.92;1.30;;;18.10;74.60;;;;;;4974995;28;20060;-82
2023/12/28 12:37:15;;;;;;;1.88;1.00;;;18.10;74.40;;;;;;5007522;28;20585;-83
2023/12/28 12:39:41;;;;;;;1.70;1.30;;;18.10;74.40;;;;;;4989182;28;20038;-83